Time;durP1;ratioP1;P1;durP2;ratioP2;P2;SDS_P1;SDS_P2;PMS_P1;PMS_P2;Temp;Humidity;BMP_temperature;BMP_pressure;BME280_temperature;BME280_humidity;BME280_pressure;Samples;Min_cycle;Max_cycle;Signal;HPM_P1;HPM_P2
2021/11/16 00:00:48;;;;;;;10.73;10.23;;;9.70;77.80;;;;;;5048645;28;20056;-78
2021/11/16 00:03:14;;;;;;;11.05;10.55;;;9.80;77.80;;;;;;5050930;28;20480;-78
2021/11/16 00:05:40;;;;;;;10.50;10.00;;;9.80;77.90;;;;;;5050158;28;20052;-78
2021/11/16 00:08:07;;;;;;;15.57;11.20;;;9.70;77.90;;;;;;5049078;28;20503;-77
2021/11/16 00:10:34;;;;;;;9.98;9.48;;;9.70;77.90;;;;;;5048233;28;20021;-77
2021/11/16 00:13:00;;;;;;;10.68;10.13;;;9.70;78.00;;;;;;5047707;28;20025;-78
2021/11/16 00:15:26;;;;;;;13.73;10.95;;;9.70;78.00;;;;;;5029550;28;20036;-78
2021/11/16 00:17:53;;;;;;;11.07;10.45;;;9.70;78.00;;;;;;5049515;28;20498;-78
2021/11/16 00:20:19;;;;;;;11.70;10.68;;;9.70;77.90;;;;;;5049109;28;20029;-78
2021/11/16 00:22:46;;;;;;;11.30;10.70;;;9.70;78.10;;;;;;5046845;28;20038;-77
2021/11/16 00:27:41;;;;;;;9.70;9.23;;;9.70;78.10;;;;;;5054081;28;20367;-77
2021/11/16 00:30:07;;;;;;;10.15;9.65;;;9.70;78.10;;;;;;5016574;28;20052;-78
2021/11/16 00:32:33;;;;;;;10.52;10.02;;;9.60;78.00;;;;;;5049619;28;20527;-78
2021/11/16 00:34:59;;;;;;;12.00;11.40;;;9.60;78.00;;;;;;5049229;28;20029;-78
2021/11/16 00:37:27;;;;;;;11.93;11.25;;;9.60;78.00;;;;;;5048258;28;20389;-77
2021/11/16 00:39:57;;;;;;;11.82;10.82;;;9.70;78.10;;;;;;5048425;28;20033;-77
2021/11/16 00:42:23;;;;;;;11.27;10.77;;;9.60;78.00;;;;;;5050083;28;20036;-78
2021/11/16 00:44:50;;;;;;;12.68;11.82;;;9.70;78.10;;;;;;5048672;28;20037;-78
2021/11/16 00:47:16;;;;;;;11.73;11.00;;;9.60;78.00;;;;;;5047836;28;20470;-78
2021/11/16 00:49:42;;;;;;;13.32;12.23;;;9.70;78.10;;;;;;5048702;28;20044;-78
2021/11/16 00:52:09;;;;;;;12.68;11.77;;;9.70;78.10;;;;;;5048086;28;20033;-78
2021/11/16 00:54:35;;;;;;;12.05;11.45;;;9.70;78.00;;;;;;5049542;28;20037;-78
2021/11/16 00:57:01;;;;;;;14.73;14.02;;;9.70;78.00;;;;;;5049776;28;20493;-78
2021/11/16 00:59:27;;;;;;;13.45;12.38;;;9.70;78.00;;;;;;5049395;28;20060;-78
2021/11/16 01:01:53;;;;;;;12.40;11.75;;;9.70;78.00;;;;;;5046170;28;20041;-78
2021/11/16 01:04:20;;;;;;;10.10;9.60;;;9.70;78.00;;;;;;5047946;28;20029;-78
2021/11/16 01:06:46;;;;;;;12.02;11.43;;;9.70;78.00;;;;;;5049594;28;20385;-78
2021/11/16 01:09:12;;;;;;;12.82;12.00;;;9.70;78.00;;;;;;5049469;28;20029;-78
2021/11/16 01:11:38;;;;;;;11.82;11.02;;;9.60;78.00;;;;;;5047735;28;20095;-78
2021/11/16 01:14:05;;;;;;;11.23;10.63;;;9.60;78.00;;;;;;5048141;28;20033;-78
2021/11/16 01:16:31;;;;;;;10.93;10.32;;;9.70;78.10;;;;;;5048812;28;20033;-78
2021/11/16 01:18:59;;;;;;;13.73;12.48;;;9.70;78.10;;;;;;5047495;28;20496;-78
2021/11/16 01:21:25;;;;;;;13.60;12.80;;;9.70;78.10;;;;;;5035216;28;20029;-78
2021/11/16 01:23:51;;;;;;;11.25;10.65;;;9.60;78.00;;;;;;5032823;28;20064;-78
2021/11/16 01:26:17;;;;;;;15.60;11.18;;;9.70;78.10;;;;;;5050149;28;20282;-78
2021/11/16 01:28:43;;;;;;;12.82;11.82;;;9.60;78.00;;;;;;5052745;28;20040;-78
2021/11/16 01:31:09;;;;;;;13.63;12.90;;;9.70;78.10;;;;;;5052054;28;20033;-78
2021/11/16 01:33:43;;;;;;;12.57;11.85;;;9.60;78.00;;;;;;5053966;28;20482;-78
2021/11/16 01:36:13;;;;;;;10.95;10.45;;;9.60;78.80;;;;;;5053027;28;20049;-78
2021/11/16 01:38:40;;;;;;;12.93;11.83;;;9.60;78.00;;;;;;5052883;28;20048;-78
2021/11/16 01:41:06;;;;;;;12.35;11.52;;;9.60;78.00;;;;;;5049490;28;20032;-78
2021/11/16 01:43:32;;;;;;;10.68;10.18;;;9.60;78.00;;;;;;5049702;28;20413;-78
2021/11/16 01:45:59;;;;;;;11.73;11.15;;;9.60;78.00;;;;;;5050225;28;20033;-78
2021/11/16 01:48:26;;;;;;;16.13;15.05;;;9.60;78.00;;;;;;5052900;28;20505;-78
2021/11/16 01:50:52;;;;;;;10.85;10.23;;;9.60;78.20;;;;;;5051077;28;20029;-78
2021/11/16 01:53:18;;;;;;;9.50;9.00;;;9.60;78.00;;;;;;5051748;28;20029;-78
2021/11/16 01:55:44;;;;;;;9.00;8.52;;;9.60;78.00;;;;;;5052071;28;20040;-78
2021/11/16 01:58:10;;;;;;;11.77;11.18;;;9.60;78.00;;;;;;5051305;28;20037;-78
2021/11/16 02:00:38;;;;;;;12.25;11.65;;;9.60;78.00;;;;;;5051485;28;20041;-78
2021/11/16 02:03:04;;;;;;;12.05;11.48;;;9.60;78.00;;;;;;5052371;28;20445;-78
2021/11/16 02:05:55;;;;;;;11.07;10.48;;;9.60;78.00;;;;;;5050723;28;20528;-78
2021/11/16 02:08:22;;;;;;;11.38;10.77;;;9.60;78.00;;;;;;5043224;28;20041;-78
2021/11/16 02:10:50;;;;;;;11.15;10.65;;;9.60;78.00;;;;;;5050804;28;20040;-78
2021/11/16 02:13:19;;;;;;;11.85;11.02;;;9.60;78.00;;;;;;5035237;28;20033;-78
2021/11/16 02:15:46;;;;;;;13.05;12.35;;;9.60;78.00;;;;;;5050073;28;20029;-78
2021/11/16 02:18:13;;;;;;;10.57;10.07;;;9.60;78.00;;;;;;5035464;28;20056;-78
2021/11/16 02:20:49;;;;;;;13.13;12.13;;;9.60;78.00;;;;;;5047988;28;20033;-78
2021/11/16 02:23:16;;;;;;;13.15;12.43;;;9.60;78.00;;;;;;5043690;28;20036;-78
2021/11/16 02:25:44;;;;;;;18.65;12.05;;;9.60;78.00;;;;;;5050258;28;20032;-78
2021/11/16 02:28:10;;;;;;;12.50;11.80;;;9.60;78.00;;;;;;5051429;28;20025;-78
2021/11/16 02:30:36;;;;;;;14.98;14.13;;;9.60;78.00;;;;;;5051360;28;20056;-78
2021/11/16 02:33:03;;;;;;;13.13;12.43;;;9.60;78.00;;;;;;5052606;28;20037;-78
2021/11/16 02:35:29;;;;;;;11.98;11.38;;;9.60;78.00;;;;;;5050430;28;20037;-78
2021/11/16 02:37:55;;;;;;;10.10;9.60;;;9.60;78.00;;;;;;5049919;28;20021;-78
2021/11/16 02:40:22;;;;;;;10.48;9.88;;;9.60;78.00;;;;;;5051079;28;20052;-78
2021/11/16 02:42:48;;;;;;;10.57;10.07;;;9.60;78.00;;;;;;5049837;28;20048;-78
2021/11/16 02:45:14;;;;;;;10.50;10.00;;;9.60;78.00;;;;;;5051639;28;20033;-78
2021/11/16 02:47:40;;;;;;;10.55;10.00;;;9.60;78.00;;;;;;5050131;28;20421;-78
2021/11/16 02:50:07;;;;;;;10.93;10.40;;;9.70;77.90;;;;;;5049994;28;20033;-78
2021/11/16 02:52:33;;;;;;;10.10;9.60;;;9.70;77.90;;;;;;5049531;28;20180;-78
2021/11/16 02:54:59;;;;;;;10.07;9.48;;;9.70;77.90;;;;;;5050649;28;20033;-78
2021/11/16 02:57:26;;;;;;;11.18;10.30;;;9.70;78.70;;;;;;5051938;28;20041;-78
2021/11/16 02:59:52;;;;;;;10.55;10.05;;;9.70;77.90;;;;;;5047695;28;20398;-78
2021/11/16 03:02:18;;;;;;;9.95;9.48;;;9.70;77.80;;;;;;5044465;28;20040;-78
2021/11/16 03:04:45;;;;;;;9.57;9.18;;;9.70;77.80;;;;;;5011513;28;20052;-78
2021/11/16 03:07:16;;;;;;;10.65;10.05;;;9.70;77.90;;;;;;5043894;28;20032;-78
2021/11/16 03:09:50;;;;;;;10.25;9.75;;;9.80;77.90;;;;;;5016287;28;20041;-78
2021/11/16 03:12:16;;;;;;;10.40;9.73;;;9.80;77.90;;;;;;5031650;28;20041;-78
2021/11/16 03:14:42;;;;;;;10.00;9.50;;;9.80;77.80;;;;;;5048451;28;20074;-78
2021/11/16 03:17:08;;;;;;;12.07;11.07;;;9.90;77.80;;;;;;5027414;28;20033;-78
2021/11/16 03:19:36;;;;;;;13.07;12.32;;;9.90;77.80;;;;;;5049596;28;20044;-78
2021/11/16 03:22:02;;;;;;;11.30;10.73;;;9.90;77.70;;;;;;5033031;28;20021;-78
2021/11/16 03:24:32;;;;;;;10.95;10.43;;;9.80;77.60;;;;;;5048893;28;20041;-78
2021/11/16 03:27:01;;;;;;;10.18;9.68;;;9.90;77.80;;;;;;5044230;28;20040;-78
2021/11/16 03:29:29;;;;;;;10.43;9.63;;;9.80;77.70;;;;;;5048122;28;20060;-78
2021/11/16 03:32:07;;;;;;;9.85;9.43;;;9.80;77.70;;;;;;5046134;28;20041;-78
2021/11/16 03:34:33;;;;;;;10.35;9.75;;;9.80;77.80;;;;;;5037632;28;20020;-78
2021/11/16 03:36:59;;;;;;;10.23;9.65;;;9.80;77.80;;;;;;5030958;28;20037;-77
2021/11/16 03:39:25;;;;;;;9.60;9.20;;;9.80;77.80;;;;;;5052333;28;20037;-77
2021/11/16 03:41:51;;;;;;;10.68;9.95;;;9.80;77.80;;;;;;5048487;28;20040;-78
2021/11/16 03:44:17;;;;;;;9.35;8.95;;;9.80;77.70;;;;;;5048921;28;20386;-78
2021/11/16 03:46:43;;;;;;;10.02;9.52;;;9.80;77.70;;;;;;5048434;28;20037;-78
2021/11/16 03:49:12;;;;;;;10.23;9.73;;;9.80;77.70;;;;;;5049721;28;20040;-78
2021/11/16 03:51:40;;;;;;;9.88;9.38;;;9.80;77.70;;;;;;5050369;28;20025;-78
2021/11/16 03:54:07;;;;;;;10.10;9.60;;;9.80;77.70;;;;;;5046463;28;20052;-78
2021/11/16 03:56:33;;;;;;;24.45;10.65;;;9.80;77.60;;;;;;5046119;28;20036;-78
2021/11/16 03:58:59;;;;;;;10.85;10.25;;;9.80;77.60;;;;;;5048927;28;20047;-77
2021/11/16 04:01:26;;;;;;;9.70;9.30;;;9.80;77.60;;;;;;5031534;28;20033;-78
2021/11/16 04:03:53;;;;;;;9.60;9.18;;;9.80;77.60;;;;;;5049750;28;20793;-77
2021/11/16 04:06:21;;;;;;;9.55;9.05;;;9.80;77.70;;;;;;5051101;28;20462;-77
2021/11/16 04:08:47;;;;;;;10.23;9.60;;;9.80;77.60;;;;;;5030839;28;20036;-78
2021/11/16 04:11:13;;;;;;;9.63;9.23;;;9.80;77.60;;;;;;5048732;28;20379;-78
2021/11/16 04:13:40;;;;;;;11.25;9.95;;;9.80;77.60;;;;;;5049885;28;20377;-78
2021/11/16 04:16:06;;;;;;;10.48;9.77;;;9.80;77.50;;;;;;5048389;28;20041;-78
2021/11/16 04:18:32;;;;;;;10.23;9.73;;;9.80;77.50;;;;;;5049962;28;20029;-78
2021/11/16 04:20:58;;;;;;;10.65;10.10;;;9.80;77.40;;;;;;5023127;28;20041;-78
2021/11/16 04:23:25;;;;;;;10.68;9.93;;;9.80;77.50;;;;;;5045050;28;20489;-78
2021/11/16 04:25:52;;;;;;;10.43;9.73;;;9.80;77.50;;;;;;5049394;28;20032;-78
2021/11/16 04:28:18;;;;;;;10.10;9.60;;;9.80;77.50;;;;;;5032905;28;20036;-78
2021/11/16 04:30:44;;;;;;;10.00;9.50;;;9.80;77.60;;;;;;5049397;28;20052;-78
2021/11/16 04:33:11;;;;;;;9.60;9.20;;;9.80;77.60;;;;;;5048564;28;20385;-77
2021/11/16 04:35:37;;;;;;;10.35;9.85;;;9.80;77.50;;;;;;5047923;28;20041;-78
2021/11/16 04:38:05;;;;;;;10.27;9.77;;;9.80;77.40;;;;;;5048381;28;20033;-78
2021/11/16 04:40:36;;;;;;;15.10;10.45;;;9.80;77.40;;;;;;5049372;28;20041;-78
2021/11/16 04:43:06;;;;;;;11.57;10.63;;;9.80;77.40;;;;;;5032828;28;20025;-77
2021/11/16 04:45:32;;;;;;;12.03;11.43;;;9.90;77.40;;;;;;5049210;28;20025;-78
2021/11/16 04:48:09;;;;;;;10.43;9.93;;;9.90;77.40;;;;;;5048201;28;20033;-77
2021/11/16 05:03:59;;;;;;;10.88;10.30;;;9.90;77.40;;;;;;5038741;28;20037;-77
2021/11/16 05:06:26;;;;;;;10.77;10.02;;;10.00;77.40;;;;;;5053742;28;20052;-77
2021/11/16 05:08:52;;;;;;;10.20;9.70;;;10.00;77.30;;;;;;5051877;28;20033;-77
2021/11/16 05:11:18;;;;;;;10.90;10.40;;;10.00;77.20;;;;;;5052806;28;20032;-78
2021/11/16 05:13:45;;;;;;;10.80;10.30;;;10.00;77.20;;;;;;5052289;28;20044;-77
2021/11/16 05:16:12;;;;;;;10.93;10.43;;;10.00;77.20;;;;;;5052380;28;20029;-77
2021/11/16 05:18:42;;;;;;;10.82;10.13;;;10.00;77.20;;;;;;5052628;28;20493;-77
2021/11/16 05:21:09;;;;;;;10.10;9.55;;;10.00;77.20;;;;;;5054501;28;20028;-77
2021/11/16 05:23:40;;;;;;;10.30;9.80;;;10.00;78.00;;;;;;5051459;28;20474;-78
2021/11/16 05:26:06;;;;;;;10.93;10.40;;;10.00;77.60;;;;;;5051856;28;20051;-78
2021/11/16 05:28:32;;;;;;;9.85;9.43;;;9.90;77.20;;;;;;5052832;28;20025;-78
2021/11/16 05:30:59;;;;;;;10.45;9.95;;;9.90;77.30;;;;;;5035696;28;20033;-78
2021/11/16 05:33:27;;;;;;;10.77;10.18;;;9.90;77.30;;;;;;5036645;28;20040;-77
2021/11/16 05:35:58;;;;;;;11.45;10.85;;;9.90;77.30;;;;;;5051774;28;20064;-77
2021/11/16 05:38:32;;;;;;;11.13;10.52;;;9.90;77.80;;;;;;5049937;28;20381;-77
2021/11/16 05:40:58;;;;;;;11.30;10.55;;;9.90;77.30;;;;;;5051838;28;20501;-78
2021/11/16 05:43:25;;;;;;;11.45;10.75;;;9.90;77.30;;;;;;5051351;28;20036;-77
2021/11/16 05:45:51;;;;;;;10.57;9.98;;;9.90;77.30;;;;;;5033619;28;20052;-77
2021/11/16 05:48:20;;;;;;;11.43;10.73;;;9.90;77.30;;;;;;5052844;28;20041;-77
2021/11/16 05:50:46;;;;;;;10.43;9.82;;;9.80;77.30;;;;;;5051271;28;20036;-77
2021/11/16 05:53:15;;;;;;;13.10;11.55;;;9.80;77.40;;;;;;5050349;28;20025;-78
2021/11/16 05:55:43;;;;;;;11.35;10.55;;;9.80;77.40;;;;;;5044648;28;20115;-77
2021/11/16 05:58:09;;;;;;;9.65;9.15;;;9.80;77.40;;;;;;5051666;28;20029;-77
2021/11/16 06:00:35;;;;;;;10.35;9.80;;;9.80;77.40;;;;;;5052575;28;20041;-78
2021/11/16 06:03:01;;;;;;;9.60;8.77;;;9.80;77.40;;;;;;5053292;28;20040;-78
2021/11/16 06:05:28;;;;;;;10.80;10.20;;;9.80;77.30;;;;;;5045595;28;20029;-78
2021/11/16 06:07:54;;;;;;;10.55;9.50;;;9.80;77.40;;;;;;5049808;28;20045;-78
2021/11/16 06:10:20;;;;;;;10.27;9.68;;;9.80;77.30;;;;;;5046974;28;20036;-78
2021/11/16 06:12:46;;;;;;;19.48;10.27;;;9.80;77.30;;;;;;5051611;28;20041;-77
2021/11/16 06:15:13;;;;;;;11.10;10.38;;;9.80;77.40;;;;;;5052482;28;20064;-78
2021/11/16 06:17:41;;;;;;;11.43;10.75;;;9.80;77.50;;;;;;5022620;28;20049;-78
2021/11/16 06:20:07;;;;;;;11.88;9.73;;;9.80;77.40;;;;;;5040847;28;20052;-78
2021/11/16 06:22:33;;;;;;;9.95;9.43;;;9.80;77.40;;;;;;5047056;28;20029;-77
2021/11/16 06:25:00;;;;;;;10.32;9.82;;;9.80;77.50;;;;;;5050810;28;20029;-78
2021/11/16 06:27:26;;;;;;;13.43;12.35;;;9.70;77.50;;;;;;5035576;28;20037;-78
2021/11/16 06:29:52;;;;;;;12.50;11.82;;;9.70;77.50;;;;;;5045340;28;20033;-78
2021/11/16 06:32:18;;;;;;;11.15;10.57;;;9.70;77.50;;;;;;5046684;28;20042;-78
2021/11/16 06:34:44;;;;;;;12.35;11.65;;;9.80;77.60;;;;;;5033299;28;20052;-77
2021/11/16 06:37:10;;;;;;;11.00;10.50;;;9.70;77.60;;;;;;5049825;28;20049;-78
2021/11/16 06:39:36;;;;;;;11.82;11.20;;;9.70;77.60;;;;;;5051140;28;20397;-78
2021/11/16 06:42:03;;;;;;;10.90;10.07;;;9.70;77.60;;;;;;5049833;28;20406;-78
2021/11/16 06:44:29;;;;;;;9.63;9.13;;;9.70;77.70;;;;;;5032591;28;20048;-78
2021/11/16 06:46:56;;;;;;;18.55;9.65;;;9.70;77.70;;;;;;5049452;28;20032;-78
2021/11/16 06:49:22;;;;;;;10.52;9.93;;;9.70;77.80;;;;;;5048808;28;20029;-78
2021/11/16 06:51:50;;;;;;;10.93;10.13;;;9.70;77.80;;;;;;5032286;28;20041;-78
2021/11/16 06:54:18;;;;;;;10.35;9.75;;;9.70;77.80;;;;;;5051245;28;20067;-78
2021/11/16 06:56:46;;;;;;;9.80;9.23;;;9.60;77.70;;;;;;5050756;28;20033;-77
2021/11/16 06:59:12;;;;;;;11.63;10.55;;;9.70;77.80;;;;;;5049887;28;20037;-78
2021/11/16 07:01:38;;;;;;;8.48;8.05;;;9.60;77.80;;;;;;5049454;28;20037;-77
2021/11/16 07:04:09;;;;;;;9.48;8.88;;;9.60;77.80;;;;;;5050293;28;20117;-78
2021/11/16 07:06:37;;;;;;;9.98;9.43;;;9.60;77.80;;;;;;5050928;28;20513;-78
2021/11/16 07:09:04;;;;;;;8.88;8.38;;;9.60;77.80;;;;;;5051619;28;20394;-78
2021/11/16 07:11:30;;;;;;;11.43;10.23;;;9.70;77.90;;;;;;5050232;28;20028;-78
2021/11/16 07:14:07;;;;;;;10.20;9.52;;;9.70;77.90;;;;;;5049785;28;20040;-78
2021/11/16 07:16:42;;;;;;;9.77;9.27;;;9.60;77.90;;;;;;5049228;28;20033;-78
2021/11/16 07:19:09;;;;;;;8.50;7.95;;;9.60;77.90;;;;;;5032457;28;20041;-77
2021/11/16 07:22:03;;;;;;;9.27;8.70;;;9.60;78.00;;;;;;5051091;28;20036;-78
2021/11/16 07:24:29;;;;;;;12.65;9.15;;;9.60;78.00;;;;;;5048168;28;20033;-78
2021/11/16 07:27:05;;;;;;;10.07;9.27;;;9.60;78.00;;;;;;5050892;28;20033;-78
2021/11/16 07:29:36;;;;;;;8.20;7.80;;;9.60;78.00;;;;;;5047665;28;20033;-78
2021/11/16 07:32:03;;;;;;;8.35;7.95;;;9.70;78.00;;;;;;5049149;28;20406;-78
2021/11/16 07:34:34;;;;;;;8.82;8.23;;;9.70;77.80;;;;;;5048093;28;20028;-78
2021/11/16 07:37:27;;;;;;;7.97;7.57;;;9.70;77.80;;;;;;5033014;28;20048;-78
2021/11/16 07:40:03;;;;;;;9.10;8.48;;;9.70;77.90;;;;;;5046157;28;20033;-78
2021/11/16 07:42:34;;;;;;;9.00;8.35;;;9.80;77.80;;;;;;5046819;28;20022;-78
2021/11/16 07:45:10;;;;;;;8.88;8.10;;;9.80;77.80;;;;;;5050931;28;20040;-83
2021/11/16 07:47:41;;;;;;;9.23;8.32;;;9.80;77.80;;;;;;5047964;28;20060;-83
2021/11/16 07:50:09;;;;;;;10.48;7.72;;;9.80;77.80;;;;;;5049591;28;20569;-81
2021/11/16 07:52:35;;;;;;;9.57;9.05;;;9.80;77.80;;;;;;5045840;28;20048;-82
2021/11/16 07:55:02;;;;;;;9.50;8.27;;;9.80;77.90;;;;;;5031288;28;20041;-82
2021/11/16 07:57:28;;;;;;;9.27;8.68;;;9.80;77.90;;;;;;5048814;28;20033;-81
2021/11/16 07:59:55;;;;;;;8.02;7.63;;;9.80;77.90;;;;;;5044981;28;20037;-83
2021/11/16 08:02:34;;;;;;;9.50;8.95;;;9.80;77.90;;;;;;5012215;28;20033;-83
2021/11/16 08:05:21;;;;;;;8.93;8.02;;;9.80;77.90;;;;;;5044734;28;20036;-77
2021/11/16 08:11:36;;;;;;;8.63;8.07;;;9.80;78.10;;;;;;5048692;28;20033;-78
2021/11/16 08:13:59;;;;;;;9.88;8.98;;;9.80;77.90;;;;;;5044526;28;20050;-78
2021/11/16 08:16:26;;;;;;;11.27;10.25;;;9.80;77.80;;;;;;5034665;28;20409;-78
2021/11/16 08:19:01;;;;;;;8.40;7.60;;;9.80;77.80;;;;;;5048834;28;20501;-78
2021/11/16 08:21:27;;;;;;;12.30;11.07;;;9.90;78.00;;;;;;5046982;28;20041;-78
2021/11/16 08:23:59;;;;;;;8.82;8.23;;;9.90;78.00;;;;;;5045611;28;20505;-77
2021/11/16 08:26:28;;;;;;;9.52;8.15;;;9.90;77.90;;;;;;5044005;28;20041;-78
2021/11/16 08:28:54;;;;;;;9.35;8.43;;;9.90;77.90;;;;;;5045841;28;20088;-78
2021/11/16 08:31:20;;;;;;;8.65;8.15;;;9.90;78.00;;;;;;5051628;28;20724;-78
2021/11/16 08:33:47;;;;;;;15.40;9.48;;;9.90;78.00;;;;;;5053098;28;20032;-77
2021/11/16 08:36:13;;;;;;;9.13;8.45;;;10.00;77.90;;;;;;5054273;28;20041;-77
2021/11/16 08:38:40;;;;;;;8.35;7.78;;;10.00;77.90;;;;;;5054136;28;20033;-78
2021/11/16 08:41:06;;;;;;;9.52;8.60;;;10.00;77.80;;;;;;5052765;28;20493;-77
2021/11/16 08:43:36;;;;;;;10.95;9.70;;;10.00;77.70;;;;;;5053237;28;20028;-78
2021/11/16 08:46:04;;;;;;;11.60;10.80;;;10.00;77.70;;;;;;5036999;28;20038;-77
2021/11/16 08:48:30;;;;;;;11.55;11.02;;;10.10;77.70;;;;;;5054565;28;20025;-78
2021/11/16 08:51:02;;;;;;;11.90;11.10;;;10.00;77.70;;;;;;5054779;28;20481;-78
2021/11/16 08:53:30;;;;;;;10.68;10.18;;;10.00;77.70;;;;;;5051251;28;20021;-78
2021/11/16 08:55:56;;;;;;;10.48;9.98;;;10.00;77.80;;;;;;5053332;28;20029;-77
2021/11/16 08:58:27;;;;;;;10.35;9.13;;;10.00;77.80;;;;;;5051451;28;20032;-77
2021/11/16 09:00:58;;;;;;;10.32;9.73;;;10.00;77.90;;;;;;5051888;28;20059;-78
2021/11/16 09:03:29;;;;;;;11.20;10.18;;;10.00;77.80;;;;;;5054227;28;20025;-77
2021/11/16 09:05:57;;;;;;;10.20;9.43;;;10.00;77.70;;;;;;5036725;28;20486;-78
2021/11/16 09:08:25;;;;;;;10.48;9.80;;;10.10;77.70;;;;;;5053796;28;20051;-78
2021/11/16 09:10:57;;;;;;;9.98;9.40;;;10.10;77.70;;;;;;5053128;28;20615;-77
2021/11/16 09:13:24;;;;;;;10.90;10.40;;;10.20;77.70;;;;;;5052333;28;20036;-78
2021/11/16 09:16:17;;;;;;;14.13;13.05;;;10.20;77.60;;;;;;5051601;28;20041;-78
2021/11/16 09:18:45;;;;;;;11.63;10.45;;;10.20;77.60;;;;;;5048593;28;20033;-78
2021/11/16 09:21:11;;;;;;;13.73;12.68;;;10.20;77.60;;;;;;5052290;28;20051;-78
2021/11/16 09:23:47;;;;;;;15.88;12.05;;;10.20;77.50;;;;;;5052911;28;20025;-78
2021/11/16 09:26:40;;;;;;;11.23;10.73;;;10.30;77.60;;;;;;5050561;28;20033;-78
2021/11/16 09:29:05;;;;;;;13.90;12.68;;;10.30;77.50;;;;;;5052788;28;20037;-78
2021/11/16 09:31:34;;;;;;;13.25;12.38;;;10.30;77.40;;;;;;5050182;28;20037;-78
2021/11/16 09:34:26;;;;;;;14.52;13.50;;;10.40;77.40;;;;;;5036134;28;20033;-78
2021/11/16 09:36:58;;;;;;;15.02;14.18;;;10.40;77.40;;;;;;5048663;28;20056;-78
2021/11/16 09:39:49;;;;;;;13.30;12.13;;;10.50;77.40;;;;;;5053388;28;20466;-77
2021/11/16 09:42:20;;;;;;;11.35;10.77;;;10.50;77.30;;;;;;5050393;28;20037;-78
2021/11/16 09:44:48;;;;;;;10.75;10.25;;;10.50;77.20;;;;;;5049382;28;20045;-78
2021/11/16 09:47:18;;;;;;;12.25;11.45;;;10.50;77.20;;;;;;5041222;28;20386;-78
2021/11/16 09:49:51;;;;;;;12.55;11.93;;;10.60;78.00;;;;;;5052925;28;20025;-78
2021/11/16 09:52:19;;;;;;;12.88;12.07;;;10.60;77.20;;;;;;5051724;28;20486;-78
2021/11/16 09:54:56;;;;;;;12.55;11.68;;;10.60;77.20;;;;;;5034302;28;20040;-78
2021/11/16 09:57:34;;;;;;;14.48;13.65;;;10.60;77.20;;;;;;5037443;28;20051;-78
2021/11/16 10:00:14;;;;;;;12.57;11.85;;;10.60;77.20;;;;;;5051791;28;20053;-78
2021/11/16 10:02:42;;;;;;;22.13;12.60;;;10.70;77.20;;;;;;5029059;28;20228;-78
2021/11/16 10:05:20;;;;;;;12.55;11.65;;;10.70;77.10;;;;;;5040158;28;20474;-78
2021/11/16 10:07:51;;;;;;;11.43;10.65;;;10.70;77.00;;;;;;5053094;28;20037;-77
2021/11/16 10:10:19;;;;;;;12.07;11.38;;;10.80;77.00;;;;;;5036139;28;20494;-78
2021/11/16 10:12:47;;;;;;;10.35;9.80;;;10.80;76.90;;;;;;5051226;28;20048;-78
2021/11/16 10:15:15;;;;;;;11.10;10.50;;;10.80;76.90;;;;;;5053803;28;20045;-77
2021/11/16 10:17:42;;;;;;;10.45;9.93;;;10.80;76.90;;;;;;5051499;28;20025;-78
2021/11/16 10:20:11;;;;;;;10.30;9.80;;;10.80;76.80;;;;;;5051125;28;20055;-78
2021/11/16 10:22:37;;;;;;;11.48;10.70;;;10.80;77.00;;;;;;5050181;28;20474;-77
2021/11/16 10:25:23;;;;;;;11.27;10.30;;;10.80;77.00;;;;;;5051943;28;20029;-78
2021/11/16 10:27:51;;;;;;;11.93;10.90;;;10.80;77.70;;;;;;5051047;28;20036;-78
2021/11/16 10:30:25;;;;;;;11.70;10.90;;;10.80;76.80;;;;;;5052427;28;20029;-78
2021/11/16 10:33:11;;;;;;;11.55;10.85;;;10.80;76.80;;;;;;5035173;28;20037;-78
2021/11/16 10:35:53;;;;;;;12.35;11.60;;;10.90;76.90;;;;;;5049721;28;20050;-78
2021/11/16 10:38:21;;;;;;;12.63;11.82;;;10.90;76.80;;;;;;5049120;28;20032;-80
2021/11/16 10:40:48;;;;;;;11.52;10.73;;;11.00;76.70;;;;;;5051601;28;20044;-82
2021/11/16 10:43:14;;;;;;;11.75;10.80;;;11.00;76.70;;;;;;5050853;28;20032;-83
2021/11/16 10:45:46;;;;;;;14.95;10.23;;;11.00;76.60;;;;;;5032304;28;20041;-83
2021/11/16 10:48:14;;;;;;;12.05;11.13;;;11.10;76.60;;;;;;5050830;28;20044;-84
2021/11/16 10:50:42;;;;;;;13.38;12.48;;;11.10;76.60;;;;;;5050029;28;20036;-85
2021/11/16 10:53:14;;;;;;;12.10;11.35;;;11.20;76.60;;;;;;5050105;28;20381;-83
2021/11/16 10:55:40;;;;;;;12.10;11.32;;;11.20;76.50;;;;;;5050741;28;20025;-86
2021/11/16 10:58:08;;;;;;;13.15;12.35;;;11.20;76.40;;;;;;5051107;28;20025;-83
2021/11/16 11:01:05;;;;;;;11.48;10.88;;;11.20;76.40;;;;;;5050704;28;20045;-79
2021/11/16 11:03:36;;;;;;;11.85;11.25;;;11.20;76.30;;;;;;5042352;28;20491;-83
2021/11/16 11:06:15;;;;;;;11.75;10.90;;;11.30;76.40;;;;;;5049807;28;20037;-84
2021/11/16 11:08:54;;;;;;;16.27;13.27;;;11.20;76.40;;;;;;5048188;28;20036;-81
2021/11/16 11:11:24;;;;;;;12.57;11.73;;;11.30;76.40;;;;;;5050849;28;20021;-81
2021/11/16 11:14:07;;;;;;;13.32;12.43;;;11.30;76.30;;;;;;5049431;28;20037;-82
2021/11/16 11:16:38;;;;;;;13.52;12.02;;;11.30;76.30;;;;;;5045723;28;20033;-83
2021/11/16 11:19:06;;;;;;;11.57;10.98;;;11.30;76.20;;;;;;5048414;28;20026;-82
2021/11/16 11:21:49;;;;;;;12.80;11.70;;;11.30;76.20;;;;;;5052201;28;20056;-82
2021/11/16 11:24:29;;;;;;;13.15;12.10;;;11.30;76.20;;;;;;5049575;28;20037;-80
2021/11/16 11:26:59;;;;;;;13.57;12.35;;;11.40;76.30;;;;;;5049852;28;20052;-81
2021/11/16 11:30:14;;;;;;;12.93;12.23;;;11.40;76.10;;;;;;5048895;28;20044;-82
2021/11/16 11:32:17;;;;;;;12.68;11.98;;;11.50;76.10;;;;;;5045454;28;20025;-84
2021/11/16 11:35:00;;;;;;;13.93;11.60;;;11.50;76.00;;;;;;5048825;28;20035;-83
2021/11/16 11:37:32;;;;;;;12.35;11.48;;;11.50;76.00;;;;;;5049435;28;20056;-81
2021/11/16 11:40:08;;;;;;;12.27;11.60;;;11.50;75.90;;;;;;5048556;28;20037;-81
2021/11/16 11:43:24;;;;;;;13.40;12.63;;;11.50;76.00;;;;;;5030706;28;20394;-81
2021/11/16 11:45:50;;;;;;;11.77;11.18;;;11.50;76.00;;;;;;5047607;28;20052;-81
2021/11/16 11:48:21;;;;;;;12.80;11.88;;;11.50;76.00;;;;;;5049218;28;20041;-81
2021/11/16 11:50:58;;;;;;;13.55;12.85;;;11.50;75.90;;;;;;5049058;28;20056;-81
2021/11/16 11:53:32;;;;;;;13.00;12.20;;;11.50;75.90;;;;;;5048733;28;20017;-81
2021/11/16 11:55:58;;;;;;;13.27;12.48;;;11.50;75.90;;;;;;5048173;28;20477;-82
2021/11/16 11:58:26;;;;;;;12.57;11.82;;;11.50;75.90;;;;;;5048274;28;20453;-83
2021/11/16 12:00:54;;;;;;;12.13;11.43;;;11.50;75.90;;;;;;5042740;28;20060;-84
2021/11/16 12:03:21;;;;;;;14.35;13.07;;;11.50;75.80;;;;;;5043020;28;20462;-85
2021/11/16 12:05:47;;;;;;;14.15;13.23;;;11.50;75.80;;;;;;5023070;28;20493;-85
2021/11/16 12:08:15;;;;;;;13.27;12.57;;;11.50;75.90;;;;;;5016210;28;20504;-84
2021/11/16 12:10:43;;;;;;;15.93;14.60;;;11.60;76.60;;;;;;5042435;28;20026;-83
2021/11/16 12:13:10;;;;;;;13.18;12.38;;;11.60;75.80;;;;;;5048713;28;20028;-84
2021/11/16 12:15:40;;;;;;;14.32;13.07;;;11.60;75.80;;;;;;5027474;28;20498;-82
2021/11/16 12:18:07;;;;;;;15.10;13.25;;;11.60;75.80;;;;;;5046454;28;20044;-84
2021/11/16 12:20:59;;;;;;;12.75;11.93;;;11.60;75.70;;;;;;5027987;28;20494;-79
2021/11/16 12:23:42;;;;;;;14.30;13.32;;;11.70;75.70;;;;;;5035095;28;20033;-79
2021/11/16 12:26:09;;;;;;;14.10;13.10;;;11.70;75.70;;;;;;5040200;28;20370;-78
2021/11/16 12:28:35;;;;;;;15.10;14.18;;;11.70;75.60;;;;;;5043578;28;20036;-79
2021/11/16 12:31:02;;;;;;;13.18;12.38;;;11.70;75.70;;;;;;5045468;28;20516;-82
2021/11/16 12:33:49;;;;;;;16.65;15.07;;;11.70;75.60;;;;;;5050421;28;20028;-81
2021/11/16 12:36:22;;;;;;;12.88;11.82;;;11.70;75.60;;;;;;5059287;28;20045;-82
2021/11/16 12:38:49;;;;;;;14.25;13.35;;;11.70;75.70;;;;;;5064390;28;20043;-83
2021/11/16 12:41:27;;;;;;;17.08;14.18;;;11.60;75.60;;;;;;5029283;28;20050;-83
2021/11/16 12:43:55;;;;;;;13.73;12.85;;;11.70;75.70;;;;;;5039878;28;20085;-82
2021/11/16 12:46:21;;;;;;;16.27;13.48;;;11.70;75.70;;;;;;5046521;28;20029;-82
2021/11/16 12:48:50;;;;;;;14.38;13.02;;;11.70;75.70;;;;;;5048085;28;20029;-83
2021/11/16 12:51:17;;;;;;;12.30;11.70;;;11.70;75.70;;;;;;5030263;28;20041;-83
2021/11/16 12:53:50;;;;;;;12.25;11.65;;;11.80;75.70;;;;;;5031138;28;20041;-78
2021/11/16 12:56:16;;;;;;;14.70;13.35;;;11.80;75.60;;;;;;5048267;28;20042;-78
2021/11/16 12:58:55;;;;;;;12.82;12.13;;;11.80;75.50;;;;;;5046992;28;20044;-77
2021/11/16 13:01:41;;;;;;;13.35;12.50;;;11.90;75.50;;;;;;5034302;28;20041;-77
2021/11/16 13:04:08;;;;;;;12.68;12.00;;;11.90;75.50;;;;;;5032076;28;20040;-77
2021/11/16 13:06:35;;;;;;;15.98;14.70;;;12.00;76.10;;;;;;5048821;28;20040;-77
2021/11/16 13:09:05;;;;;;;14.75;13.95;;;11.90;75.30;;;;;;5047709;28;20048;-77